Aviation Digital Data Service (ADDS)

Output produced by METARs form (2306 UTC 23 March 2019)
found at http://www.aviationweather.gov/metar/data/
 
METAR text: PASI 232253Z 12011KT 10SM FEW040 OVC060 10/03 A3010 RMK AO2 SLP194 T01000028
Conditions at: PASI (SITKA , AK, US) observed 2253 UTC 23 March 2019
Temperature: 10.0°C (50°F)
Dewpoint: 2.8°C (37°F) [RH = 61%]
Pressure (altimeter): 30.10 inches Hg (1019.4 mb)
[Sea-level pressure: 1019.4 mb]
Winds: from the ESE (120 degrees) at 13 MPH (11 knots; 5.7 m/s)
Visibility: 10 or more miles (16+ km)
Ceiling: 6000 feet AGL
Clouds: few clouds at 4000 feet AGL
overcast cloud deck at 6000 feet AGL
Weather: no significant weather observed at this time

METAR text: PASI 232153Z 19006KT 10SM FEW035 OVC055 09/04 A3009 RMK AO2 SLP190 T00940044
Conditions at: PASI (SITKA , AK, US) observed 2153 UTC 23 March 2019
Temperature: 9.4°C (49°F)
Dewpoint: 4.4°C (40°F) [RH = 71%]
Pressure (altimeter): 30.09 inches Hg (1019.0 mb)
[Sea-level pressure: 1019.0 mb]
Winds: from the S (190 degrees) at 7 MPH (6 knots; 3.1 m/s)
Visibility: 10 or more miles (16+ km)
Ceiling: 5500 feet AGL
Clouds: few clouds at 3500 feet AGL
overcast cloud deck at 5500 feet AGL
Weather: no significant weather observed at this time

METAR text: PASI 232053Z 14006KT 10SM SCT044 09/05 A3007 RMK AO2 RAE02 SLP181 P0000 60002 T00940050 51026
Conditions at: PASI (SITKA , AK, US) observed 2053 UTC 23 March 2019
Temperature: 9.4°C (49°F)
Dewpoint: 5.0°C (41°F) [RH = 74%]
Pressure (altimeter): 30.07 inches Hg (1018.4 mb)
[Sea-level pressure: 1018.1 mb]
Winds: from the SE (140 degrees) at 7 MPH (6 knots; 3.1 m/s)
Visibility: 10 or more miles (16+ km)
Ceiling: at least 12,000 feet AGL
Clouds: scattered clouds at 4400 feet AGL
Weather: no significant weather observed at this time

METAR text: PASI 231953Z 15006KT 10SM -RA BKN041 08/06 A3005 RMK AO2 RAB18 SLP175 P0002 T00830056
Conditions at: PASI (SITKA , AK, US) observed 1953 UTC 23 March 2019
Temperature: 8.3°C (47°F)
Dewpoint: 5.6°C (42°F) [RH = 83%]
Pressure (altimeter): 30.05 inches Hg (1017.7 mb)
[Sea-level pressure: 1017.5 mb]
Winds: from the SSE (150 degrees) at 7 MPH (6 knots; 3.1 m/s)
Visibility: 10 or more miles (16+ km)
Ceiling: 4100 feet AGL
Clouds: broken clouds at 4100 feet AGL
Weather: -RA  (light rain)

METAR text: PASI 231853Z 18004KT 10SM OVC049 08/05 A3002 RMK AO2 RAE01 SLP164 P0000 T00780050
Conditions at: PASI (SITKA , AK, US) observed 1853 UTC 23 March 2019
Temperature: 7.8°C (46°F)
Dewpoint: 5.0°C (41°F) [RH = 82%]
Pressure (altimeter): 30.02 inches Hg (1016.7 mb)
[Sea-level pressure: 1016.4 mb]
Winds: from the S (180 degrees) at 5 MPH (4 knots; 2.1 m/s)
Visibility: 10 or more miles (16+ km)
Ceiling: 4900 feet AGL
Clouds: overcast cloud deck at 4900 feet AGL
Weather: no significant weather observed at this time

METAR text: PASI 231753Z 17007KT 10SM -RA OVC040 07/05 A2999 RMK AO2 RAB04 SLP155 P0000 60004 T00720050 10083 20067 51039
Conditions at: PASI (SITKA , AK, US) observed 1753 UTC 23 March 2019
Temperature: 7.2°C (45°F)
Dewpoint: 5.0°C (41°F) [RH = 86%]
Pressure (altimeter): 29.99 inches Hg (1015.7 mb)
[Sea-level pressure: 1015.5 mb]
Winds: from the S (170 degrees) at 8 MPH (7 knots; 3.6 m/s)
Visibility: 10 or more miles (16+ km)
Ceiling: 4000 feet AGL
Clouds: overcast cloud deck at 4000 feet AGL
Weather: -RA  (light rain)

METAR text: PASI 231653Z 14007KT 10SM SCT035 BKN048 OVC060 07/05 A2995 RMK AO2 RAE42 SLP141 P0001 T00720050
Conditions at: PASI (SITKA , AK, US) observed 1653 UTC 23 March 2019
Temperature: 7.2°C (45°F)
Dewpoint: 5.0°C (41°F) [RH = 86%]
Pressure (altimeter): 29.95 inches Hg (1014.3 mb)
[Sea-level pressure: 1014.1 mb]
Winds: from the SE (140 degrees) at 8 MPH (7 knots; 3.6 m/s)
Visibility: 10 or more miles (16+ km)
Ceiling: 4800 feet AGL
Clouds: scattered clouds at 3500 feet AGL
broken clouds at 4800 feet AGL
overcast cloud deck at 6000 feet AGL
Weather: no significant weather observed at this time

METAR text: PASI 231611Z 13006KT 10SM -RA SCT029 OVC038 07/05 A2993 RMK AO2 P0001 T00720050
Conditions at: PASI (SITKA , AK, US) observed 1611 UTC 23 March 2019
Temperature: 7.2°C (45°F)
Dewpoint: 5.0°C (41°F) [RH = 86%]
Pressure (altimeter): 29.93 inches Hg (1013.6 mb)
Winds: from the SE (130 degrees) at 7 MPH (6 knots; 3.1 m/s)
Visibility: 10 or more miles (16+ km)
Ceiling: 3800 feet AGL
Clouds: scattered clouds at 2900 feet AGL
overcast cloud deck at 3800 feet AGL
Weather: -RA  (light rain)

METAR text: PASI 231553Z 14005KT 10SM -RA SCT024 BKN029 OVC036 07/06 A2991 RMK AO2 SLP130 P0002 T00720056
Conditions at: PASI (SITKA , AK, US) observed 1553 UTC 23 March 2019
Temperature: 7.2°C (45°F)
Dewpoint: 5.6°C (42°F) [RH = 90%]
Pressure (altimeter): 29.91 inches Hg (1013.0 mb)
[Sea-level pressure: 1013.0 mb]
Winds: from the SE (140 degrees) at 6 MPH (5 knots; 2.6 m/s)
Visibility: 10 or more miles (16+ km)
Ceiling: 2900 feet AGL
Clouds: scattered clouds at 2400 feet AGL
broken clouds at 2900 feet AGL
overcast cloud deck at 3600 feet AGL
Weather: -RA  (light rain)

METAR text: PASI 231543Z 14005KT 10SM -RA SCT024 BKN030 OVC036 07/06 A2991 RMK AO2 P0002 T00720056
Conditions at: PASI (SITKA , AK, US) observed 1543 UTC 23 March 2019
Temperature: 7.2°C (45°F)
Dewpoint: 5.6°C (42°F) [RH = 90%]
Pressure (altimeter): 29.91 inches Hg (1013.0 mb)
Winds: from the SE (140 degrees) at 6 MPH (5 knots; 2.6 m/s)
Visibility: 10 or more miles (16+ km)
Ceiling: 3000 feet AGL
Clouds: scattered clouds at 2400 feet AGL
broken clouds at 3000 feet AGL
overcast cloud deck at 3600 feet AGL
Weather: -RA  (light rain)

METAR text: PASI 231534Z 16007KT 10SM -RA BKN024 BKN029 OVC043 07/06 A2990 RMK AO2 P0001 T00720056
Conditions at: PASI (SITKA , AK, US) observed 1534 UTC 23 March 2019
Temperature: 7.2°C (45°F)
Dewpoint: 5.6°C (42°F) [RH = 90%]
Pressure (altimeter): 29.90 inches Hg (1012.6 mb)
Winds: from the SSE (160 degrees) at 8 MPH (7 knots; 3.6 m/s)
Visibility: 10 or more miles (16+ km)
Ceiling: 2400 feet AGL
Clouds: broken clouds at 2400 feet AGL
broken clouds at 2900 feet AGL
overcast cloud deck at 4300 feet AGL
Weather: -RA  (light rain)

METAR text: PASI 231453Z 16010KT 10SM -RA OVC045 08/04 A2987 RMK AO2 PK WND 20026/1401 SLP115 P0001 60001 T00780044 53044
Conditions at: PASI (SITKA , AK, US) observed 1453 UTC 23 March 2019
Temperature: 7.8°C (46°F)
Dewpoint: 4.4°C (40°F) [RH = 79%]
Pressure (altimeter): 29.87 inches Hg (1011.6 mb)
[Sea-level pressure: 1011.5 mb]
Winds: from the SSE (160 degrees) at 12 MPH (10 knots; 5.1 m/s)
Visibility: 10 or more miles (16+ km)
Ceiling: 4500 feet AGL
Clouds: overcast cloud deck at 4500 feet AGL
Weather: -RA  (light rain)

METAR text: PASI 231353Z 19017G24KT 10SM -RA OVC036 07/05 A2982 RMK AO2 PK WND 20027/1330 RAB21 SLP099 P0000 T00720050
Conditions at: PASI (SITKA , AK, US) observed 1353 UTC 23 March 2019
Temperature: 7.2°C (45°F)
Dewpoint: 5.0°C (41°F) [RH = 86%]
Pressure (altimeter): 29.82 inches Hg (1009.9 mb)
[Sea-level pressure: 1009.9 mb]
Winds: from the S (190 degrees) at 20 MPH (17 knots; 8.7 m/s)
gusting to 28 MPH (24 knots; 12.3 m/s)
Visibility: 10 or more miles (16+ km)
Ceiling: 3600 feet AGL
Clouds: overcast cloud deck at 3600 feet AGL
Weather: -RA  (light rain)

METAR text: PASI 231253Z 20014KT 10SM OVC046 08/06 A2978 RMK AO2 SLP083 T00780061
Conditions at: PASI (SITKA , AK, US) observed 1253 UTC 23 March 2019
Temperature: 7.8°C (46°F)
Dewpoint: 6.1°C (43°F) [RH = 89%]
Pressure (altimeter): 29.78 inches Hg (1008.5 mb)
[Sea-level pressure: 1008.3 mb]
Winds: from the SSW (200 degrees) at 16 MPH (14 knots; 7.2 m/s)
Visibility: 10 or more miles (16+ km)
Ceiling: 4600 feet AGL
Clouds: overcast cloud deck at 4600 feet AGL
Weather: no significant weather observed at this time

METAR text: PASI 231153Z 20009KT 10SM BKN050 BKN060 OVC120 08/06 A2974 RMK AO2 SLP072 60002 70005 T00780056 10100 20078 53017
Conditions at: PASI (SITKA , AK, US) observed 1153 UTC 23 March 2019
Temperature: 7.8°C (46°F)
Dewpoint: 5.6°C (42°F) [RH = 86%]
Pressure (altimeter): 29.74 inches Hg (1007.2 mb)
[Sea-level pressure: 1007.2 mb]
Winds: from the SSW (200 degrees) at 10 MPH (9 knots; 4.6 m/s)
Visibility: 10 or more miles (16+ km)
Ceiling: 5000 feet AGL
Clouds: broken clouds at 5000 feet AGL
broken clouds at 6000 feet AGL
overcast cloud deck at 12000 feet AGL
Weather: no significant weather observed at this time

METAR text: PASI 231053Z 12011KT 10SM BKN048 OVC060 10/04 A2972 RMK AO2 SLP062 T01000044
Conditions at: PASI (SITKA , AK, US) observed 1053 UTC 23 March 2019
Temperature: 10.0°C (50°F)
Dewpoint: 4.4°C (40°F) [RH = 68%]
Pressure (altimeter): 29.72 inches Hg (1006.5 mb)
[Sea-level pressure: 1006.2 mb]
Winds: from the ESE (120 degrees) at 13 MPH (11 knots; 5.7 m/s)
Visibility: 10 or more miles (16+ km)
Ceiling: 4800 feet AGL
Clouds: broken clouds at 4800 feet AGL
overcast cloud deck at 6000 feet AGL
Weather: no significant weather observed at this time

METAR text: PASI 230953Z 15011KT 10SM BKN090 OVC110 09/05 A2969 RMK AO2 SLP055 T00940050
Conditions at: PASI (SITKA , AK, US) observed 0953 UTC 23 March 2019
Temperature: 9.4°C (49°F)
Dewpoint: 5.0°C (41°F) [RH = 74%]
Pressure (altimeter): 29.69 inches Hg (1005.5 mb)
[Sea-level pressure: 1005.5 mb]
Winds: from the SSE (150 degrees) at 13 MPH (11 knots; 5.7 m/s)
Visibility: 10 or more miles (16+ km)
Ceiling: 9000 feet AGL
Clouds: broken clouds at 9000 feet AGL
overcast cloud deck at 11000 feet AGL
Weather: no significant weather observed at this time

METAR text: PASI 230853Z 11010KT 10SM OVC075 09/05 A2969 RMK AO2 SLP055 60002 T00940050 401330061 50000
Conditions at: PASI (SITKA , AK, US) observed 0853 UTC 23 March 2019
Temperature: 9.4°C (49°F)
Dewpoint: 5.0°C (41°F) [RH = 74%]
Pressure (altimeter): 29.69 inches Hg (1005.5 mb)
[Sea-level pressure: 1005.5 mb]
Winds: from the ESE (110 degrees) at 12 MPH (10 knots; 5.1 m/s)
Visibility: 10 or more miles (16+ km)
Ceiling: 7500 feet AGL
Clouds: overcast cloud deck at 7500 feet AGL
Weather: no significant weather observed at this time

METAR text: PASI 230753Z 01004KT 10SM OVC090 08/07 A2970 RMK AO2 RAE53 SLP056 P0001 T00830072
Conditions at: PASI (SITKA , AK, US) observed 0753 UTC 23 March 2019
Temperature: 8.3°C (47°F)
Dewpoint: 7.2°C (45°F) [RH = 93%]
Pressure (altimeter): 29.70 inches Hg (1005.8 mb)
[Sea-level pressure: 1005.6 mb]
Winds: from the N (10 degrees) at 5 MPH (4 knots; 2.1 m/s)
Visibility: 10 or more miles (16+ km)
Ceiling: 9000 feet AGL
Clouds: overcast cloud deck at 9000 feet AGL
Weather: no significant weather observed at this time

METAR text: PASI 230653Z 05007KT 7SM -RA OVC045 08/07 A2969 RMK AO2 RAB24 SLP055 P0001 T00780072
Conditions at: PASI (SITKA , AK, US) observed 0653 UTC 23 March 2019
Temperature: 7.8°C (46°F)
Dewpoint: 7.2°C (45°F) [RH = 96%]
Pressure (altimeter): 29.69 inches Hg (1005.5 mb)
[Sea-level pressure: 1005.5 mb]
Winds: from the NE (50 degrees) at 8 MPH (7 knots; 3.6 m/s)
Visibility: 7 miles (11 km)
Ceiling: 4500 feet AGL
Clouds: overcast cloud deck at 4500 feet AGL
Weather: -RA  (light rain)

METAR text: PASI 230553Z 00000KT 7SM OVC050 08/07 A2969 RMK AO2 SLP055 60003 T00780072 10128 20078 53007
Conditions at: PASI (SITKA , AK, US) observed 0553 UTC 23 March 2019
Temperature: 7.8°C (46°F)
Dewpoint: 7.2°C (45°F) [RH = 96%]
Pressure (altimeter): 29.69 inches Hg (1005.5 mb)
[Sea-level pressure: 1005.5 mb]
Winds: calm
Visibility: 7 miles (11 km)
Ceiling: 5000 feet AGL
Clouds: overcast cloud deck at 5000 feet AGL
Weather: no significant weather observed at this time

METAR text: PASI 230453Z 10003KT 8SM BKN060 OVC080 08/07 A2967 RMK AO2 SLP048 T00780072
Conditions at: PASI (SITKA , AK, US) observed 0453 UTC 23 March 2019
Temperature: 7.8°C (46°F)
Dewpoint: 7.2°C (45°F) [RH = 96%]
Pressure (altimeter): 29.67 inches Hg (1004.8 mb)
[Sea-level pressure: 1004.8 mb]
Winds: from the E (100 degrees) at 3 MPH (3 knots; 1.5 m/s)
Visibility: 8 miles (13 km)
Ceiling: 6000 feet AGL
Clouds: broken clouds at 6000 feet AGL
overcast cloud deck at 8000 feet AGL
Weather: no significant weather observed at this time

METAR text: PASI 230353Z 31004KT 10SM SCT050 OVC090 08/07 A2967 RMK AO2 SLP046 T00780067
Conditions at: PASI (SITKA , AK, US) observed 0353 UTC 23 March 2019
Temperature: 7.8°C (46°F)
Dewpoint: 6.7°C (44°F) [RH = 93%]
Pressure (altimeter): 29.67 inches Hg (1004.8 mb)
[Sea-level pressure: 1004.6 mb]
Winds: from the NW (310 degrees) at 5 MPH (4 knots; 2.1 m/s)
Visibility: 10 or more miles (16+ km)
Ceiling: 9000 feet AGL
Clouds: scattered clouds at 5000 feet AGL
overcast cloud deck at 9000 feet AGL
Weather: no significant weather observed at this time

METAR text: PASI 230253Z 32006KT 8SM BKN050 OVC065 08/07 A2967 RMK AO2 RAB08E48 SLP047 P0003 60003 T00830067 58005
Conditions at: PASI (SITKA , AK, US) observed 0253 UTC 23 March 2019
Temperature: 8.3°C (47°F)
Dewpoint: 6.7°C (44°F) [RH = 90%]
Pressure (altimeter): 29.67 inches Hg (1004.8 mb)
[Sea-level pressure: 1004.7 mb]
Winds: from the NW (320 degrees) at 7 MPH (6 knots; 3.1 m/s)
Visibility: 8 miles (13 km)
Ceiling: 5000 feet AGL
Clouds: broken clouds at 5000 feet AGL
overcast cloud deck at 6500 feet AGL
Weather: no significant weather observed at this time

METAR text: PASI 230153Z 00000KT 10SM BKN050 OVC070 09/06 A2968 RMK AO2 RAE04 SLP049 P0000 T00940056
Conditions at: PASI (SITKA , AK, US) observed 0153 UTC 23 March 2019
Temperature: 9.4°C (49°F)
Dewpoint: 5.6°C (42°F) [RH = 77%]
Pressure (altimeter): 29.68 inches Hg (1005.2 mb)
[Sea-level pressure: 1004.9 mb]
Winds: calm
Visibility: 10 or more miles (16+ km)
Ceiling: 5000 feet AGL
Clouds: broken clouds at 5000 feet AGL
overcast cloud deck at 7000 feet AGL
Weather: no significant weather observed at this time

METAR text: PASI 230053Z 00000KT 8SM -RA SCT060 OVC090 09/06 A2969 RMK AO2 RAB49 SLP052 P0000 T00890056
Conditions at: PASI (SITKA , AK, US) observed 0053 UTC 23 March 2019
Temperature: 8.9°C (48°F)
Dewpoint: 5.6°C (42°F) [RH = 80%]
Pressure (altimeter): 29.69 inches Hg (1005.5 mb)
[Sea-level pressure: 1005.2 mb]
Winds: calm
Visibility: 8 miles (13 km)
Ceiling: 9000 feet AGL
Clouds: scattered clouds at 6000 feet AGL
overcast cloud deck at 9000 feet AGL
Weather: -RA  (light rain)

METAR text: PASI 222353Z 10011KT 8SM FEW050 SCT075 OVC095 13/04 A2969 RMK AO2 SLP052 60000 T01280044 10133 20089 56014
Conditions at: PASI (SITKA , AK, US) observed 2353 UTC 22 March 2019
Temperature: 12.8°C (55°F)
Dewpoint: 4.4°C (40°F) [RH = 57%]
Pressure (altimeter): 29.69 inches Hg (1005.5 mb)
[Sea-level pressure: 1005.2 mb]
Winds: from the E (100 degrees) at 13 MPH (11 knots; 5.7 m/s)
Visibility: 8 miles (13 km)
Ceiling: 9500 feet AGL
Clouds: few clouds at 5000 feet AGL
scattered clouds at 7500 feet AGL
overcast cloud deck at 9500 feet AGL
Weather: no significant weather observed at this time

METAR text: PASI 222253Z VRB03KT 8SM FEW050 SCT070 OVC085 11/06 A2970 RMK AO2 SLP057 T01110056
Conditions at: PASI (SITKA , AK, US) observed 2253 UTC 22 March 2019
Temperature: 11.1°C (52°F)
Dewpoint: 5.6°C (42°F) [RH = 69%]
Pressure (altimeter): 29.70 inches Hg (1005.8 mb)
[Sea-level pressure: 1005.7 mb]
Winds: variable direction winds at 3 MPH (3 knots; 1.5 m/s)
Visibility: 8 miles (13 km)
Ceiling: 8500 feet AGL
Clouds: few clouds at 5000 feet AGL
scattered clouds at 7000 feet AGL
overcast cloud deck at 8500 feet AGL
Weather: no significant weather observed at this time

METAR text: PASI 222153Z 33006KT 7SM OVC070 09/06 A2971 RMK AO2 SLP060 T00940061
Conditions at: PASI (SITKA , AK, US) observed 2153 UTC 22 March 2019
Temperature: 9.4°C (49°F)
Dewpoint: 6.1°C (43°F) [RH = 80%]
Pressure (altimeter): 29.71 inches Hg (1006.2 mb)
[Sea-level pressure: 1006.0 mb]
Winds: from the NNW (330 degrees) at 7 MPH (6 knots; 3.1 m/s)
Visibility: 7 miles (11 km)
Ceiling: 7000 feet AGL
Clouds: overcast cloud deck at 7000 feet AGL
Weather: no significant weather observed at this time

METAR text: PASI 222053Z 31006KT 10SM BKN070 OVC090 09/06 A2973 RMK AO2 RAE1955 SLP066 P0000 60000 T00890056 58003
Conditions at: PASI (SITKA , AK, US) observed 2053 UTC 22 March 2019
Temperature: 8.9°C (48°F)
Dewpoint: 5.6°C (42°F) [RH = 80%]
Pressure (altimeter): 29.73 inches Hg (1006.9 mb)
[Sea-level pressure: 1006.6 mb]
Winds: from the NW (310 degrees) at 7 MPH (6 knots; 3.1 m/s)
Visibility: 10 or more miles (16+ km)
Ceiling: 7000 feet AGL
Clouds: broken clouds at 7000 feet AGL
overcast cloud deck at 9000 feet AGL
Weather: no significant weather observed at this time

METAR text: PASI 221953Z 33005KT 7SM -RA BKN065 OVC080 09/06 A2973 RMK AO2 RAB45 SLP069 P0000 T00940061
Conditions at: PASI (SITKA , AK, US) observed 1953 UTC 22 March 2019
Temperature: 9.4°C (49°F)
Dewpoint: 6.1°C (43°F) [RH = 80%]
Pressure (altimeter): 29.73 inches Hg (1006.9 mb)
[Sea-level pressure: 1006.9 mb]
Winds: from the NNW (330 degrees) at 6 MPH (5 knots; 2.6 m/s)
Visibility: 7 miles (11 km)
Ceiling: 6500 feet AGL
Clouds: broken clouds at 6500 feet AGL
overcast cloud deck at 8000 feet AGL
Weather: -RA  (light rain)

METAR text: PASI 221853Z 31006KT 10SM BKN070 09/06 A2973 RMK AO2 SLP069 T00890056
Conditions at: PASI (SITKA , AK, US) observed 1853 UTC 22 March 2019
Temperature: 8.9°C (48°F)
Dewpoint: 5.6°C (42°F) [RH = 80%]
Pressure (altimeter): 29.73 inches Hg (1006.9 mb)
[Sea-level pressure: 1006.9 mb]
Winds: from the NW (310 degrees) at 7 MPH (6 knots; 3.1 m/s)
Visibility: 10 or more miles (16+ km)
Ceiling: 7000 feet AGL
Clouds: broken clouds at 7000 feet AGL
Weather: no significant weather observed at this time

METAR text: PASI 221753Z 33006KT 10SM BKN075 09/06 A2973 RMK AO2 SLP069 T00940056 10122 20072 55000
Conditions at: PASI (SITKA , AK, US) observed 1753 UTC 22 March 2019
Temperature: 9.4°C (49°F)
Dewpoint: 5.6°C (42°F) [RH = 77%]
Pressure (altimeter): 29.73 inches Hg (1006.9 mb)
[Sea-level pressure: 1006.9 mb]
Winds: from the NNW (330 degrees) at 7 MPH (6 knots; 3.1 m/s)
Visibility: 10 or more miles (16+ km)
Ceiling: 7500 feet AGL
Clouds: broken clouds at 7500 feet AGL
Weather: no significant weather observed at this time

METAR text: PASI 221653Z 25005KT 10SM SCT065 10/05 A2973 RMK AO2 SLP069 T01000050
Conditions at: PASI (SITKA , AK, US) observed 1653 UTC 22 March 2019
Temperature: 10.0°C (50°F)
Dewpoint: 5.0°C (41°F) [RH = 71%]
Pressure (altimeter): 29.73 inches Hg (1006.9 mb)
[Sea-level pressure: 1006.9 mb]
Winds: from the WSW (250 degrees) at 6 MPH (5 knots; 2.6 m/s)
Visibility: 10 or more miles (16+ km)
Ceiling: at least 12,000 feet AGL
Clouds: scattered clouds at 6500 feet AGL
Weather: no significant weather observed at this time

METAR text: PASI 221553Z 11011KT 10SM SCT070 BKN110 12/04 A2973 RMK AO2 SLP067 T01220044
Conditions at: PASI (SITKA , AK, US) observed 1553 UTC 22 March 2019
Temperature: 12.2°C (54°F)
Dewpoint: 4.4°C (40°F) [RH = 59%]
Pressure (altimeter): 29.73 inches Hg (1006.9 mb)
[Sea-level pressure: 1006.7 mb]
Winds: from the ESE (110 degrees) at 13 MPH (11 knots; 5.7 m/s)
Visibility: 10 or more miles (16+ km)
Ceiling: 11000 feet AGL
Clouds: scattered clouds at 7000 feet AGL
broken clouds at 11000 feet AGL
Weather: no significant weather observed at this time

METAR text: PASI 221453Z 11013KT 10SM OVC070 12/04 A2973 RMK AO2 SLP069 T01220044 56013
Conditions at: PASI (SITKA , AK, US) observed 1453 UTC 22 March 2019
Temperature: 12.2°C (54°F)
Dewpoint: 4.4°C (40°F) [RH = 59%]
Pressure (altimeter): 29.73 inches Hg (1006.9 mb)
[Sea-level pressure: 1006.9 mb]
Winds: from the ESE (110 degrees) at 15 MPH (13 knots; 6.7 m/s)
Visibility: 10 or more miles (16+ km)
Ceiling: 7000 feet AGL
Clouds: overcast cloud deck at 7000 feet AGL
Weather: no significant weather observed at this time

METAR text: PASI 221353Z 11006KT 10SM OVC070 10/05 A2974 RMK AO2 SLP069 T01000050
Conditions at: PASI (SITKA , AK, US) observed 1353 UTC 22 March 2019
Temperature: 10.0°C (50°F)
Dewpoint: 5.0°C (41°F) [RH = 71%]
Pressure (altimeter): 29.74 inches Hg (1007.2 mb)
[Sea-level pressure: 1006.9 mb]
Winds: from the ESE (110 degrees) at 7 MPH (6 knots; 3.1 m/s)
Visibility: 10 or more miles (16+ km)
Ceiling: 7000 feet AGL
Clouds: overcast cloud deck at 7000 feet AGL
Weather: no significant weather observed at this time

METAR text: PASI 221253Z 00000KT 10SM BKN080 BKN090 07/06 A2975 RMK AO2 SLP073 T00720056
Conditions at: PASI (SITKA , AK, US) observed 1253 UTC 22 March 2019
Temperature: 7.2°C (45°F)
Dewpoint: 5.6°C (42°F) [RH = 90%]
Pressure (altimeter): 29.75 inches Hg (1007.5 mb)
[Sea-level pressure: 1007.3 mb]
Winds: calm
Visibility: 10 or more miles (16+ km)
Ceiling: 8000 feet AGL
Clouds: broken clouds at 8000 feet AGL
broken clouds at 9000 feet AGL
Weather: no significant weather observed at this time

METAR text: PASI 221153Z 34007KT 10SM FEW070 OVC080 07/06 A2977 RMK AO2 SLP082 T00720056 10089 20061 58018
Conditions at: PASI (SITKA , AK, US) observed 1153 UTC 22 March 2019
Temperature: 7.2°C (45°F)
Dewpoint: 5.6°C (42°F) [RH = 90%]
Pressure (altimeter): 29.77 inches Hg (1008.2 mb)
[Sea-level pressure: 1008.2 mb]
Winds: from the NNW (340 degrees) at 8 MPH (7 knots; 3.6 m/s)
Visibility: 10 or more miles (16+ km)
Ceiling: 8000 feet AGL
Clouds: few clouds at 7000 feet AGL
overcast cloud deck at 8000 feet AGL
Weather: no significant weather observed at this time

Forecast for: PASI (SITKA , AK, US)
Text: PASI 231736Z 2318/2418 14008KT P6SM -SHRA SCT025 OVC050
Forecast period: 1800 UTC 23 March 2019 to 1200 UTC 24 March 2019
Forecast type: FROM: standard forecast or significant change
Winds: from the SE (140 degrees) at 9 MPH (8 knots; 4.1 m/s)
Visibility: 6 or more miles 10+ km)
Ceiling: 5000 feet AGL
Clouds: scattered clouds at 2500 feet AGL
overcast cloud deck at 5000 feet AGL
Weather: -SHRA  (light rain showers)
Text: FM241200 08004KT P6SM SCT030 BKN120
Forecast period: 1200 to 1800 UTC 24 March 2019
Forecast type: FROM: standard forecast or significant change
Winds: from the E (80 degrees) at 5 MPH (4 knots; 2.1 m/s)
Visibility: 6 or more miles 10+ km)
Ceiling: 12000 feet AGL
Clouds: scattered clouds at 3000 feet AGL
broken clouds at 12000 feet AGL
Weather: no significant weather forecast for this period